Time;durP1;ratioP1;P1;durP2;ratioP2;P2;SDS_P1;SDS_P2;PMS_P1;PMS_P2;Temp;Humidity;BMP_temperature;BMP_pressure;BME280_temperature;BME280_humidity;BME280_pressure;Samples;Min_cycle;Max_cycle;Signal;HPM_P1;HPM_P2
2022/06/07 00:00:44;;;;;;;5.82;3.30;;;18.00;96.20;;;;;;5069639;28;20199;-83
2022/06/07 00:03:10;;;;;;;5.32;3.28;;;18.00;96.60;;;;;;5079114;28;20276;-84
2022/06/07 00:05:35;;;;;;;3.33;3.00;;;17.90;98.20;;;;;;5083399;28;20217;-84
2022/06/07 00:08:01;;;;;;;3.50;3.20;;;17.90;98.40;;;;;;5091059;28;20681;-83
2022/06/07 00:10:27;;;;;;;3.65;3.33;;;17.80;98.60;;;;;;5095509;28;20195;-82
2022/06/07 00:12:53;;;;;;;3.80;3.50;;;17.70;99.90;;;;;;5085186;28;20571;-84
2022/06/07 00:15:19;;;;;;;3.40;3.10;;;17.80;99.00;;;;;;5082261;28;20214;-83
2022/06/07 00:17:45;;;;;;;3.33;2.90;;;17.80;99.70;;;;;;5083766;28;20187;-84
2022/06/07 00:20:12;;;;;;;3.38;3.17;;;17.80;99.60;;;;;;5078040;28;20209;-84
2022/06/07 00:22:38;;;;;;;5.40;3.05;;;17.70;99.90;;;;;;5090219;28;20228;-85
2022/06/07 00:25:06;;;;;;;4.55;3.10;;;17.80;99.60;;;;;;5070415;28;20225;-84
2022/06/07 00:27:32;;;;;;;3.75;2.97;;;17.80;99.50;;;;;;5084016;28;20228;-84
2022/06/07 00:29:58;;;;;;;3.25;2.95;;;17.90;99.90;;;;;;5086310;28;20190;-84
2022/06/07 00:32:24;;;;;;;4.15;3.22;;;17.90;99.20;;;;;;5080638;28;20210;-85
2022/06/07 00:34:50;;;;;;;3.53;3.05;;;17.90;99.20;;;;;;5086326;28;20225;-83
2022/06/07 00:37:16;;;;;;;3.63;3.33;;;17.90;99.70;;;;;;5075927;28;20202;-83
2022/06/07 00:39:42;;;;;;;3.55;3.13;;;17.80;99.90;;;;;;5093306;28;20216;-84
2022/06/07 00:42:08;;;;;;;3.28;2.85;;;17.60;98.80;;;;;;5086058;28;20262;-85
2022/06/07 00:44:44;;;;;;;3.20;2.80;;;17.50;99.90;;;;;;5063788;28;20257;-83
2022/06/07 00:47:19;;;;;;;3.22;2.92;;;17.50;99.90;;;;;;5081584;28;20194;-84
2022/06/07 00:49:49;;;;;;;3.33;2.75;;;17.40;99.90;;;;;;5078862;28;20190;-84
2022/06/07 00:52:18;;;;;;;3.40;2.78;;;17.40;99.90;;;;;;5084688;28;20203;-84
2022/06/07 00:54:44;;;;;;;4.00;2.75;;;17.40;99.90;;;;;;5084114;28;20284;-83
2022/06/07 00:57:09;;;;;;;3.30;3.00;;;17.40;99.90;;;;;;5078419;28;20220;-84
2022/06/07 00:59:36;;;;;;;3.73;3.10;;;17.30;99.90;;;;;;5083968;28;20193;-85
2022/06/07 01:02:02;;;;;;;3.67;2.90;;;17.20;99.90;;;;;;5082898;28;20217;-84
2022/06/07 01:04:28;;;;;;;7.10;3.20;;;17.10;99.90;;;;;;5088208;28;20285;-84
2022/06/07 01:12:24;;;;;;;4.10;3.07;;;16.90;99.90;;;;;;5089268;28;20230;-84
2022/06/07 01:14:50;;;;;;;3.97;2.63;;;16.90;99.90;;;;;;5088810;28;20189;-85
2022/06/07 01:17:16;;;;;;;4.57;2.93;;;16.80;99.90;;;;;;5090202;28;20193;-84
2022/06/07 01:19:42;;;;;;;2.90;2.60;;;16.80;99.90;;;;;;5088851;28;20203;-84
2022/06/07 01:22:08;;;;;;;2.93;2.63;;;16.80;99.90;;;;;;5090953;28;20703;-84
2022/06/07 01:24:33;;;;;;;3.37;2.57;;;16.80;99.90;;;;;;5084987;28;20229;-84
2022/06/07 01:26:59;;;;;;;2.90;2.50;;;16.90;99.90;;;;;;5084198;28;20180;-83
2022/06/07 01:29:25;;;;;;;2.60;2.40;;;16.90;99.90;;;;;;5085080;28;20208;-83
2022/06/07 01:31:51;;;;;;;3.77;2.50;;;16.90;99.90;;;;;;5081563;28;20648;-84
2022/06/07 01:34:16;;;;;;;3.23;2.60;;;16.90;99.90;;;;;;5082517;28;20231;-84
2022/06/07 01:36:42;;;;;;;2.80;2.60;;;16.90;99.90;;;;;;5084408;28;20189;-85
2022/06/07 01:41:55;;;;;;;2.60;2.40;;;17.00;99.90;;;;;;5078814;28;20227;-84
2022/06/07 01:44:29;;;;;;;3.23;2.53;;;17.00;99.90;;;;;;5082810;28;20836;-85
2022/06/07 01:46:57;;;;;;;3.00;2.67;;;17.00;99.90;;;;;;5081918;28;20251;-83
2022/06/07 01:49:23;;;;;;;4.15;2.50;;;17.10;99.90;;;;;;5068156;28;20186;-84
2022/06/07 01:51:50;;;;;;;2.55;2.20;;;17.10;99.90;;;;;;5084414;28;20207;-84
2022/06/07 01:54:17;;;;;;;2.38;2.28;;;17.20;99.90;;;;;;5083653;28;20198;-84
2022/06/07 01:56:42;;;;;;;2.42;2.22;;;17.30;99.90;;;;;;5064987;28;20198;-84
2022/06/07 01:59:08;;;;;;;2.55;2.28;;;17.40;99.90;;;;;;5081417;28;20201;-85
2022/06/07 02:01:35;;;;;;;2.58;2.28;;;17.40;99.90;;;;;;5081440;28;20211;-83
2022/06/07 02:04:00;;;;;;;2.30;2.10;;;17.50;99.90;;;;;;5082092;28;20210;-84
2022/06/07 02:06:26;;;;;;;3.47;2.70;;;17.60;99.90;;;;;;5081359;28;20187;-83
2022/06/07 02:08:52;;;;;;;2.58;2.38;;;17.60;99.90;;;;;;5075447;28;20557;-84
2022/06/07 02:11:20;;;;;;;2.63;2.38;;;17.70;99.90;;;;;;5083642;28;20233;-85
2022/06/07 02:13:46;;;;;;;3.88;2.42;;;17.70;99.90;;;;;;5078400;28;20192;-84
2022/06/07 02:16:13;;;;;;;2.47;2.28;;;17.80;99.50;;;;;;5085968;28;20183;-84
2022/06/07 02:18:39;;;;;;;3.78;2.60;;;17.90;98.40;;;;;;5086412;28;20184;-85
2022/06/07 02:21:06;;;;;;;4.50;2.47;;;17.90;98.20;;;;;;5083513;28;20195;-85
2022/06/07 02:23:33;;;;;;;2.60;2.40;;;17.90;99.80;;;;;;5072882;28;20610;-84
2022/06/07 02:26:03;;;;;;;3.05;2.25;;;17.80;99.90;;;;;;5077136;28;20212;-84
2022/06/07 02:28:36;;;;;;;2.28;2.08;;;17.80;99.80;;;;;;5076849;28;20183;-84
2022/06/07 02:31:03;;;;;;;2.78;2.55;;;17.80;99.60;;;;;;5081364;28;20180;-83
2022/06/07 02:33:30;;;;;;;2.58;2.38;;;17.90;99.40;;;;;;5087188;28;20179;-85
2022/06/07 02:35:56;;;;;;;2.47;2.28;;;17.80;98.30;;;;;;5081951;28;20264;-84
2022/06/07 02:38:22;;;;;;;2.13;1.95;;;17.80;99.20;;;;;;5081767;28;20245;-83
2022/06/07 02:40:49;;;;;;;3.58;2.40;;;17.90;97.50;;;;;;5081044;28;20207;-83
2022/06/07 02:43:15;;;;;;;2.35;2.15;;;18.00;97.00;;;;;;5080928;28;20215;-84
2022/06/07 02:45:41;;;;;;;2.95;2.50;;;18.00;96.60;;;;;;5089242;28;20201;-84
2022/06/07 02:48:07;;;;;;;3.33;2.40;;;18.10;96.80;;;;;;5069410;28;20713;-84
2022/06/07 02:50:33;;;;;;;2.50;2.30;;;18.10;97.60;;;;;;5085941;28;20206;-85
2022/06/07 02:52:59;;;;;;;2.65;2.45;;;18.10;98.10;;;;;;5078892;28;20801;-83
2022/06/07 02:55:25;;;;;;;2.45;2.20;;;18.10;97.90;;;;;;5083717;28;20184;-84
2022/06/07 02:57:51;;;;;;;2.65;2.45;;;18.00;97.50;;;;;;5084927;28;20183;-83
2022/06/07 03:00:17;;;;;;;3.22;2.42;;;18.00;96.40;;;;;;5085073;28;20191;-83
2022/06/07 03:02:43;;;;;;;2.95;2.28;;;18.10;96.80;;;;;;5089348;28;20306;-84
2022/06/07 03:05:13;;;;;;;2.65;2.45;;;18.00;96.10;;;;;;5083408;28;20196;-82
2022/06/07 03:07:40;;;;;;;2.60;2.40;;;18.00;96.20;;;;;;5082864;28;20184;-84
2022/06/07 03:10:07;;;;;;;2.70;2.50;;;18.00;97.10;;;;;;5083711;28;20212;-84
2022/06/07 03:12:33;;;;;;;2.80;2.50;;;18.00;97.00;;;;;;5092670;28;20723;-83
2022/06/07 03:14:59;;;;;;;1.95;1.80;;;17.90;98.10;;;;;;5088289;28;20196;-84
2022/06/07 03:17:25;;;;;;;3.83;2.40;;;18.00;98.00;;;;;;5081816;28;20230;-84
2022/06/07 03:19:51;;;;;;;3.40;2.50;;;18.00;98.80;;;;;;5084188;28;20184;-83
2022/06/07 03:22:18;;;;;;;3.42;2.45;;;18.00;99.00;;;;;;5083830;28;20226;-84
2022/06/07 03:24:44;;;;;;;2.97;2.33;;;18.00;99.60;;;;;;5090622;28;20585;-83
2022/06/07 03:27:11;;;;;;;2.75;2.33;;;17.90;99.20;;;;;;5082976;28;21049;-83
2022/06/07 03:29:37;;;;;;;2.50;2.30;;;17.90;99.30;;;;;;5083155;28;20224;-83
2022/06/07 03:32:05;;;;;;;2.63;2.40;;;18.00;99.20;;;;;;5083310;28;20214;-83
2022/06/07 03:34:31;;;;;;;3.83;2.80;;;18.00;98.70;;;;;;5084244;28;20207;-84
2022/06/07 03:36:57;;;;;;;2.67;2.47;;;17.90;99.90;;;;;;5083071;28;20564;-84
2022/06/07 03:39:22;;;;;;;2.75;2.20;;;17.90;99.30;;;;;;5084444;28;20682;-83
2022/06/07 03:41:48;;;;;;;5.03;2.30;;;17.80;99.50;;;;;;5074090;28;20230;-84
2022/06/07 03:44:14;;;;;;;2.22;2.13;;;17.80;99.60;;;;;;5078433;28;20226;-84
2022/06/07 03:46:42;;;;;;;3.35;2.55;;;17.70;99.90;;;;;;5087909;28;20183;-85
2022/06/07 03:49:08;;;;;;;4.15;2.50;;;17.70;99.50;;;;;;5085326;28;20183;-83
2022/06/07 03:51:34;;;;;;;4.38;2.35;;;17.70;99.10;;;;;;5071213;28;20227;-83
2022/06/07 03:54:00;;;;;;;2.65;2.40;;;17.70;98.40;;;;;;5085995;28;20188;-83
2022/06/07 03:56:26;;;;;;;2.80;2.60;;;17.70;98.50;;;;;;5084411;28;20191;-82
2022/06/07 03:58:53;;;;;;;2.65;2.45;;;17.70;98.30;;;;;;5088819;28;20194;-83
2022/06/07 04:01:21;;;;;;;2.60;2.40;;;17.70;98.10;;;;;;5075149;28;20246;-83
2022/06/07 04:03:50;;;;;;;2.55;2.35;;;17.90;97.00;;;;;;5080584;28;20222;-83
2022/06/07 04:06:27;;;;;;;3.28;2.65;;;17.90;96.80;;;;;;5085655;28;20190;-84
2022/06/07 04:08:53;;;;;;;2.70;2.50;;;17.80;97.70;;;;;;5096185;28;20203;-84
2022/06/07 04:11:21;;;;;;;3.90;2.40;;;17.60;97.90;;;;;;5094485;28;20336;-84
2022/06/07 04:13:48;;;;;;;5.72;3.00;;;17.50;99.00;;;;;;5087378;28;20189;-82
2022/06/07 04:16:16;;;;;;;3.85;2.45;;;17.50;99.30;;;;;;5078506;28;20277;-83
2022/06/07 04:18:43;;;;;;;2.50;2.30;;;17.50;99.40;;;;;;5077979;28;20561;-84
2022/06/07 04:21:10;;;;;;;2.85;2.42;;;17.50;99.00;;;;;;5081708;28;20237;-83
2022/06/07 04:23:36;;;;;;;2.63;2.25;;;17.60;99.40;;;;;;5082063;28;20455;-84
2022/06/07 04:26:10;;;;;;;3.03;2.60;;;17.70;98.40;;;;;;5079127;28;20195;-83
2022/06/07 04:28:36;;;;;;;2.60;2.40;;;17.60;98.00;;;;;;5080188;28;20598;-84
2022/06/07 04:31:02;;;;;;;2.70;2.50;;;17.60;98.60;;;;;;5085520;28;20177;-82
2022/06/07 04:33:28;;;;;;;3.88;2.92;;;17.60;98.60;;;;;;5085453;28;20458;-83
2022/06/07 04:35:54;;;;;;;2.70;2.50;;;17.50;99.70;;;;;;5084790;28;20237;-84
2022/06/07 04:38:19;;;;;;;2.85;2.65;;;17.40;99.90;;;;;;5065307;28;20192;-82
2022/06/07 04:40:45;;;;;;;3.28;2.92;;;17.40;99.80;;;;;;5083573;28;20187;-84
2022/06/07 04:43:12;;;;;;;2.67;2.47;;;17.50;99.90;;;;;;5081909;28;20219;-83
2022/06/07 04:45:39;;;;;;;4.60;3.03;;;17.50;99.70;;;;;;5085758;28;20886;-82
2022/06/07 04:48:09;;;;;;;3.97;2.72;;;17.60;99.60;;;;;;5082896;28;20190;-83
2022/06/07 04:50:35;;;;;;;3.45;2.95;;;17.60;99.90;;;;;;5086838;28;20707;-83
2022/06/07 04:53:01;;;;;;;3.75;2.78;;;17.60;99.90;;;;;;5068504;28;20241;-83
2022/06/07 04:55:27;;;;;;;3.75;3.20;;;17.60;99.90;;;;;;5082770;28;20184;-85
2022/06/07 04:57:52;;;;;;;3.60;2.97;;;17.30;99.90;;;;;;5081633;28;20199;-85
2022/06/07 05:00:19;;;;;;;3.35;3.08;;;17.00;99.90;;;;;;5081915;28;20214;-82
2022/06/07 05:02:46;;;;;;;3.25;2.95;;;16.90;99.90;;;;;;5079169;28;20225;-82
2022/06/07 05:05:14;;;;;;;2.92;2.63;;;16.90;99.90;;;;;;5088234;28;20215;-84
2022/06/07 05:07:41;;;;;;;3.97;3.37;;;16.70;99.90;;;;;;5086518;28;20189;-83
2022/06/07 05:10:09;;;;;;;3.53;3.23;;;16.50;99.90;;;;;;5082854;28;20715;-82
2022/06/07 05:12:35;;;;;;;4.37;3.10;;;16.40;99.90;;;;;;5076964;28;20255;-83
2022/06/07 05:15:02;;;;;;;5.63;3.97;;;16.40;99.90;;;;;;5062663;28;20201;-82
2022/06/07 05:17:28;;;;;;;3.70;3.30;;;16.40;99.90;;;;;;5079557;28;20285;-85
2022/06/07 05:19:53;;;;;;;3.73;3.43;;;16.40;99.90;;;;;;5079674;28;20219;-83
2022/06/07 05:22:19;;;;;;;4.40;3.63;;;16.50;99.90;;;;;;5079395;28;20272;-83
2022/06/07 05:24:45;;;;;;;3.60;3.30;;;16.60;99.90;;;;;;5079814;28;20297;-84
2022/06/07 05:27:19;;;;;;;4.13;3.73;;;16.50;99.90;;;;;;5079289;28;20190;-84
2022/06/07 05:29:44;;;;;;;4.00;3.50;;;16.60;99.90;;;;;;5083575;28;20187;-84
2022/06/07 05:32:10;;;;;;;7.80;3.53;;;16.70;99.90;;;;;;5080610;28;20693;-84
2022/06/07 05:34:36;;;;;;;5.00;3.50;;;16.70;99.90;;;;;;5079778;28;20187;-84
2022/06/07 05:37:02;;;;;;;4.23;3.60;;;16.60;99.90;;;;;;5079229;28;20192;-84
2022/06/07 05:39:29;;;;;;;5.10;4.20;;;16.60;99.90;;;;;;5077873;28;20666;-84
2022/06/07 05:41:55;;;;;;;4.47;4.07;;;16.60;99.90;;;;;;5078502;28;20265;-84
2022/06/07 05:44:22;;;;;;;3.97;3.63;;;16.70;99.90;;;;;;5078455;28;20211;-82
2022/06/07 05:46:49;;;;;;;4.50;4.00;;;16.80;99.90;;;;;;5077698;28;20451;-84
2022/06/07 05:49:16;;;;;;;4.17;3.63;;;16.70;99.90;;;;;;5078231;28;20188;-84
2022/06/07 05:51:42;;;;;;;4.00;3.70;;;16.90;99.90;;;;;;5080533;28;20204;-84
2022/06/07 05:54:10;;;;;;;4.33;3.60;;;16.90;99.90;;;;;;5083153;28;20209;-84
2022/06/07 05:56:36;;;;;;;3.50;3.20;;;17.00;99.90;;;;;;5080753;28;20202;-83
2022/06/07 05:59:02;;;;;;;4.23;3.60;;;17.00;99.90;;;;;;5081649;28;20212;-84
2022/06/07 06:01:27;;;;;;;4.53;3.60;;;17.00;99.90;;;;;;5081481;28;20215;-84
2022/06/07 06:03:56;;;;;;;5.20;3.77;;;17.00;99.90;;;;;;5081235;28;20228;-84
2022/06/07 06:06:22;;;;;;;4.13;3.60;;;17.10;99.90;;;;;;5080865;28;20191;-83
2022/06/07 06:11:33;;;;;;;3.87;3.57;;;17.30;99.90;;;;;;5080185;28;20636;-84
2022/06/07 06:13:59;;;;;;;5.77;3.57;;;17.40;99.90;;;;;;5080183;28;20188;-83
2022/06/07 06:16:25;;;;;;;4.37;3.40;;;17.40;99.90;;;;;;5080117;28;20195;-84
2022/06/07 06:18:54;;;;;;;4.83;3.20;;;17.50;99.90;;;;;;5080513;28;20243;-84
2022/06/07 06:21:21;;;;;;;3.40;3.20;;;17.50;99.90;;;;;;5063553;28;20679;-84
2022/06/07 06:23:47;;;;;;;4.80;3.50;;;17.40;99.90;;;;;;5080217;28;20215;-84
2022/06/07 06:26:16;;;;;;;3.60;3.30;;;17.30;99.90;;;;;;5079830;28;20192;-83
2022/06/07 06:28:42;;;;;;;3.80;3.50;;;17.20;99.90;;;;;;5079979;28;20586;-84
2022/06/07 06:31:09;;;;;;;6.03;3.60;;;17.20;99.90;;;;;;5080777;28;20187;-84
2022/06/07 06:33:40;;;;;;;3.60;3.27;;;17.20;99.90;;;;;;5079421;28;20192;-83
2022/06/07 06:36:08;;;;;;;3.90;3.30;;;17.20;99.90;;;;;;5079804;28;20186;-84
2022/06/07 06:38:34;;;;;;;3.77;3.10;;;17.20;99.90;;;;;;5080192;28;20357;-84
2022/06/07 06:41:07;;;;;;;6.63;3.30;;;17.10;99.90;;;;;;5058660;28;20192;-83
2022/06/07 06:43:33;;;;;;;3.53;3.23;;;17.20;99.90;;;;;;5082025;28;20230;-84
2022/06/07 06:46:10;;;;;;;3.23;3.00;;;17.30;99.90;;;;;;5085967;28;20202;-83
2022/06/07 06:48:37;;;;;;;4.17;3.30;;;17.30;99.90;;;;;;5084904;28;20214;-85
2022/06/07 06:51:05;;;;;;;3.93;3.53;;;17.30;99.90;;;;;;5081774;28;20185;-83
2022/06/07 06:53:32;;;;;;;3.40;3.10;;;17.20;99.90;;;;;;5081393;28;20184;-84
2022/06/07 06:55:57;;;;;;;3.87;3.37;;;17.30;99.90;;;;;;5084305;28;20297;-84
2022/06/07 06:58:26;;;;;;;3.70;3.40;;;17.30;99.90;;;;;;5082972;28;20203;-84
2022/06/07 07:01:03;;;;;;;4.25;3.85;;;17.50;99.90;;;;;;5081671;28;20328;-82
2022/06/07 07:03:30;;;;;;;4.05;3.70;;;17.70;99.90;;;;;;5073235;28;20221;-83
2022/06/07 07:05:56;;;;;;;3.60;3.30;;;18.00;99.90;;;;;;5078911;28;20258;-82
2022/06/07 07:08:24;;;;;;;3.83;3.53;;;18.20;99.90;;;;;;5077530;28;20213;-83
2022/06/07 07:10:50;;;;;;;3.80;3.50;;;18.20;99.90;;;;;;5078990;28;20190;-84
2022/06/07 07:13:16;;;;;;;4.57;4.17;;;18.50;99.90;;;;;;5070350;28;20598;-82
2022/06/07 07:15:48;;;;;;;4.15;3.85;;;18.50;99.40;;;;;;5088359;28;20178;-81
2022/06/07 07:18:13;;;;;;;4.38;3.72;;;18.60;98.90;;;;;;5092888;28;20202;-82
2022/06/07 07:20:40;;;;;;;3.95;3.65;;;18.70;95.60;;;;;;5092943;28;20220;-81
2022/06/07 07:23:06;;;;;;;3.95;3.65;;;18.80;96.10;;;;;;5093461;28;20233;-80
2022/06/07 07:25:32;;;;;;;4.03;3.65;;;18.90;96.90;;;;;;5087878;28;20253;-84
2022/06/07 07:27:58;;;;;;;4.15;3.75;;;18.90;96.20;;;;;;5081082;28;20195;-84
2022/06/07 07:30:24;;;;;;;3.78;3.47;;;19.10;96.20;;;;;;5060924;28;20207;-84
2022/06/07 07:32:49;;;;;;;4.43;3.85;;;19.30;96.10;;;;;;5077880;28;20203;-82
2022/06/07 07:35:17;;;;;;;4.43;4.10;;;19.40;92.50;;;;;;5077916;28;20598;-84
2022/06/07 07:37:43;;;;;;;4.13;3.83;;;19.40;92.20;;;;;;5062234;28;20282;-83
2022/06/07 07:40:10;;;;;;;6.68;4.00;;;19.20;93.40;;;;;;5081532;28;20187;-82
2022/06/07 07:42:36;;;;;;;4.65;4.18;;;18.90;95.10;;;;;;5074969;28;20298;-82
2022/06/07 07:45:02;;;;;;;3.97;3.58;;;19.00;96.00;;;;;;5080742;28;20243;-81
2022/06/07 07:47:27;;;;;;;5.38;4.72;;;19.10;93.40;;;;;;5079577;28;20183;-82
2022/06/07 07:49:54;;;;;;;5.65;4.00;;;19.20;93.20;;;;;;5078801;28;20584;-83
2022/06/07 07:52:21;;;;;;;5.65;3.97;;;19.40;91.10;;;;;;5082466;28;20202;-81
2022/06/07 07:54:47;;;;;;;4.80;4.05;;;19.60;91.80;;;;;;5081077;28;20194;-82
2022/06/07 07:57:12;;;;;;;5.03;3.55;;;19.70;92.10;;;;;;5078644;28;20191;-83
2022/06/07 07:59:38;;;;;;;6.45;4.43;;;19.70;92.10;;;;;;5061562;28;20215;-83
2022/06/07 08:02:04;;;;;;;4.80;4.38;;;19.50;91.60;;;;;;5059730;28;20249;-81
2022/06/07 08:04:30;;;;;;;5.00;4.60;;;19.60;90.50;;;;;;5075047;28;20241;-84
2022/06/07 08:06:55;;;;;;;4.22;3.80;;;19.60;90.90;;;;;;5077988;28;20188;-83
2022/06/07 08:09:22;;;;;;;5.07;4.25;;;19.60;88.80;;;;;;5064035;28;20209;-84
2022/06/07 08:11:48;;;;;;;3.90;3.60;;;19.60;90.40;;;;;;5081102;28;20198;-82
2022/06/07 08:14:18;;;;;;;4.75;3.65;;;19.40;89.20;;;;;;5079223;28;20191;-82
2022/06/07 08:16:44;;;;;;;6.38;3.42;;;19.50;89.70;;;;;;5078524;28;20264;-82
2022/06/07 08:19:10;;;;;;;3.55;3.30;;;19.60;86.50;;;;;;5077848;28;20245;-83
2022/06/07 08:21:37;;;;;;;3.78;2.90;;;19.70;86.60;;;;;;5081738;28;20210;-82
2022/06/07 08:24:04;;;;;;;3.00;2.80;;;19.80;84.60;;;;;;5081928;28;20218;-81
2022/06/07 08:26:31;;;;;;;3.20;2.90;;;20.00;83.30;;;;;;5079656;28;20191;-83
2022/06/07 08:28:57;;;;;;;3.45;3.17;;;20.00;81.20;;;;;;5061674;28;20283;-82
2022/06/07 08:31:25;;;;;;;4.57;3.58;;;20.10;83.30;;;;;;5079920;28;20206;-83
2022/06/07 08:39:21;;;;;;;5.22;3.20;;;19.90;82.60;;;;;;5086914;28;20204;-82
2022/06/07 08:42:07;;;;;;;3.60;3.10;;;20.30;82.80;;;;;;5086344;28;20211;-83
2022/06/07 08:44:48;;;;;;;3.40;3.10;;;20.50;80.10;;;;;;5075107;28;20704;-82
2022/06/07 08:47:24;;;;;;;3.30;3.00;;;20.70;78.90;;;;;;5073154;28;20202;-82
2022/06/07 08:49:52;;;;;;;2.85;2.65;;;21.00;79.60;;;;;;5079885;28;20502;-81
2022/06/07 08:52:32;;;;;;;2.67;2.47;;;21.10;76.10;;;;;;5075943;28;20324;-82
2022/06/07 08:54:58;;;;;;;3.08;2.80;;;21.50;72.80;;;;;;5079883;28;20188;-82
2022/06/07 08:57:36;;;;;;;6.05;3.30;;;21.70;75.00;;;;;;5078180;28;20187;-82
2022/06/07 09:00:15;;;;;;;3.00;2.80;;;21.90;74.70;;;;;;5077397;28;20183;-81
2022/06/07 09:03:14;;;;;;;3.38;3.00;;;22.00;77.30;;;;;;5080513;28;20225;-83
2022/06/07 09:05:40;;;;;;;3.22;2.90;;;22.30;72.80;;;;;;5079539;28;20192;-83
2022/06/07 09:08:06;;;;;;;3.90;2.70;;;22.20;74.40;;;;;;5082730;28;20190;-81
2022/06/07 09:13:23;;;;;;;4.88;2.53;;;22.20;69.60;;;;;;5076878;28;20252;-81
2022/06/07 09:15:53;;;;;;;4.85;2.45;;;22.10;69.60;;;;;;5077620;28;20187;-81
2022/06/07 09:18:20;;;;;;;2.72;2.50;;;22.00;71.90;;;;;;5076811;28;20195;-81
2022/06/07 09:20:50;;;;;;;3.65;2.38;;;22.20;71.60;;;;;;5079918;28;20190;-81
2022/06/07 09:23:38;;;;;;;2.65;2.45;;;22.30;66.30;;;;;;5079420;28;20299;-81
2022/06/07 09:26:27;;;;;;;3.65;2.38;;;22.20;63.20;;;;;;5078306;28;20191;-81
2022/06/07 09:29:10;;;;;;;2.97;2.20;;;22.40;63.30;;;;;;5078315;28;20232;-81
2022/06/07 09:31:41;;;;;;;2.50;2.30;;;22.10;65.20;;;;;;5075422;28;20199;-80
2022/06/07 09:34:09;;;;;;;3.38;2.53;;;22.50;64.90;;;;;;5079041;28;20183;-81
2022/06/07 09:36:40;;;;;;;2.90;2.47;;;22.50;63.80;;;;;;5081253;28;20183;-80
2022/06/07 09:39:26;;;;;;;3.53;2.30;;;22.40;66.40;;;;;;5075493;28;20210;-81
2022/06/07 09:42:06;;;;;;;5.90;2.83;;;22.30;64.60;;;;;;5078552;28;20256;-81
2022/06/07 09:44:51;;;;;;;2.40;2.20;;;22.30;65.90;;;;;;5078593;28;20598;-81
2022/06/07 09:47:22;;;;;;;3.85;2.17;;;22.60;62.10;;;;;;5078296;28;20179;-81
2022/06/07 09:49:53;;;;;;;2.90;2.20;;;22.90;60.30;;;;;;5080904;28;20187;-81
2022/06/07 09:52:29;;;;;;;3.13;2.08;;;22.90;58.60;;;;;;5078726;28;20207;-81
2022/06/07 09:55:23;;;;;;;2.58;2.42;;;22.70;61.00;;;;;;5075205;28;20237;-81
2022/06/07 09:58:29;;;;;;;7.38;2.60;;;22.60;60.90;;;;;;5077612;28;20192;-81
2022/06/07 10:01:02;;;;;;;2.35;1.90;;;22.60;61.30;;;;;;5061551;28;20207;-80
2022/06/07 10:03:37;;;;;;;3.00;2.70;;;22.60;60.60;;;;;;5081192;28;20226;-81
2022/06/07 10:06:14;;;;;;;3.20;2.90;;;22.80;62.00;;;;;;5082635;28;20702;-81
2022/06/07 10:08:46;;;;;;;3.38;2.90;;;23.10;63.50;;;;;;5081624;28;20606;-81
2022/06/07 10:11:31;;;;;;;3.00;2.80;;;23.40;60.30;;;;;;5082636;28;20179;-80
2022/06/07 10:14:29;;;;;;;3.00;2.75;;;23.30;58.50;;;;;;5078793;28;20219;-80
2022/06/07 10:17:18;;;;;;;4.35;3.05;;;23.50;58.50;;;;;;5076643;28;20203;-81
2022/06/07 10:20:15;;;;;;;3.38;3.08;;;23.20;58.30;;;;;;5074144;28;20191;-82
2022/06/07 10:22:50;;;;;;;2.60;2.40;;;22.90;60.80;;;;;;5084710;28;20211;-80
2022/06/07 10:25:29;;;;;;;2.70;2.25;;;22.60;60.00;;;;;;5080095;28;20202;-81
2022/06/07 10:28:12;;;;;;;2.42;2.22;;;22.30;59.00;;;;;;5074926;28;20171;-81
2022/06/07 10:31:01;;;;;;;3.08;2.47;;;22.10;62.60;;;;;;5078950;28;20182;-81
2022/06/07 10:33:31;;;;;;;2.88;2.60;;;21.90;62.70;;;;;;5073514;28;20282;-80
2022/06/07 10:36:14;;;;;;;4.00;3.60;;;22.10;63.80;;;;;;5081031;28;20244;-82
2022/06/07 10:38:58;;;;;;;4.30;3.90;;;22.00;64.70;;;;;;5089167;28;20186;-81
2022/06/07 10:41:33;;;;;;;3.80;3.50;;;21.90;66.40;;;;;;5080448;28;20225;-81
2022/06/07 10:44:18;;;;;;;4.07;3.75;;;22.10;65.70;;;;;;5085220;28;20214;-81
2022/06/07 10:46:45;;;;;;;4.63;4.22;;;22.40;65.70;;;;;;5067540;28;20265;-82
2022/06/07 10:49:16;;;;;;;4.25;3.60;;;22.50;64.20;;;;;;5073284;28;20187;-83
2022/06/07 10:54:40;;;;;;;4.43;4.03;;;22.70;63.00;;;;;;5073160;28;20605;-81
2022/06/07 10:57:20;;;;;;;3.92;3.58;;;22.80;62.10;;;;;;5071257;28;20220;-80
2022/06/07 10:59:45;;;;;;;4.38;3.97;;;22.60;63.20;;;;;;5074796;28;20258;-81
2022/06/07 11:02:39;;;;;;;4.05;3.55;;;22.60;63.20;;;;;;5072199;28;20709;-82
2022/06/07 11:11:00;;;;;;;5.07;4.20;;;22.50;62.00;;;;;;5078896;28;20236;-81
2022/06/07 11:13:50;;;;;;;5.07;4.57;;;22.50;61.80;;;;;;5081434;28;20189;-80
2022/06/07 11:16:27;;;;;;;5.07;4.60;;;22.40;64.00;;;;;;5078061;28;20180;-80
2022/06/07 11:18:53;;;;;;;4.63;4.13;;;22.40;64.60;;;;;;5078825;28;20313;-80
2022/06/07 11:21:32;;;;;;;4.60;4.20;;;22.60;62.00;;;;;;5056796;28;20206;-81
2022/06/07 11:23:59;;;;;;;5.95;5.35;;;22.80;65.30;;;;;;5076023;28;20201;-81
2022/06/07 11:26:25;;;;;;;5.13;4.68;;;23.00;62.80;;;;;;5075716;28;20183;-81
2022/06/07 11:28:53;;;;;;;4.80;4.25;;;23.60;62.60;;;;;;5055409;28;20210;-81
2022/06/07 11:31:39;;;;;;;5.00;4.50;;;24.20;58.80;;;;;;5080301;28;20607;-80
2022/06/07 11:34:22;;;;;;;5.93;5.32;;;24.30;55.90;;;;;;5067343;28;20187;-80
2022/06/07 11:36:49;;;;;;;5.10;4.63;;;24.40;58.20;;;;;;5078752;28;20195;-80
2022/06/07 11:39:22;;;;;;;4.90;4.50;;;24.50;55.70;;;;;;5079930;28;20188;-81
2022/06/07 11:41:51;;;;;;;5.00;4.63;;;24.70;56.70;;;;;;5077538;28;20255;-80
2022/06/07 11:44:17;;;;;;;4.93;4.13;;;24.80;55.10;;;;;;5078013;28;20246;-81
2022/06/07 11:46:51;;;;;;;4.43;4.13;;;24.10;56.70;;;;;;5078649;28;20187;-80
2022/06/07 11:49:27;;;;;;;4.18;3.85;;;23.30;59.40;;;;;;5073153;28;20190;-81
2022/06/07 11:52:22;;;;;;;3.50;3.20;;;23.60;60.10;;;;;;5079846;28;20362;-81
2022/06/07 11:54:54;;;;;;;6.55;3.97;;;23.90;58.60;;;;;;5071512;28;20213;-81
2022/06/07 11:57:35;;;;;;;5.22;4.35;;;23.80;60.20;;;;;;5076387;28;20690;-81
2022/06/07 12:00:19;;;;;;;4.18;3.83;;;24.00;58.30;;;;;;5077619;28;20578;-81
2022/06/07 12:02:57;;;;;;;3.75;3.22;;;24.00;58.20;;;;;;5080606;28;20211;-81
2022/06/07 12:05:43;;;;;;;5.03;3.28;;;24.00;57.70;;;;;;5072313;28;20285;-79
2022/06/07 12:08:34;;;;;;;3.65;2.70;;;24.20;56.50;;;;;;5074971;28;20186;-81
2022/06/07 12:11:21;;;;;;;3.38;3.10;;;24.50;54.60;;;;;;5073212;28;20183;-80
2022/06/07 12:14:05;;;;;;;3.83;3.08;;;24.40;53.30;;;;;;5078875;28;20194;-80
2022/06/07 12:16:43;;;;;;;3.60;3.30;;;24.30;55.20;;;;;;5074550;28;20183;-81
2022/06/07 12:19:24;;;;;;;5.90;4.38;;;23.80;57.60;;;;;;5071420;28;20176;-80
2022/06/07 12:22:17;;;;;;;4.00;3.60;;;23.70;58.00;;;;;;5075035;28;20265;-80
2022/06/07 12:24:47;;;;;;;5.30;4.88;;;24.20;57.00;;;;;;5077257;28;20191;-80
2022/06/07 12:27:21;;;;;;;4.30;4.00;;;24.10;55.70;;;;;;5084420;28;20187;-83
2022/06/07 12:29:47;;;;;;;4.55;3.75;;;24.30;56.40;;;;;;5075481;28;20188;-82
2022/06/07 12:32:25;;;;;;;4.13;3.83;;;24.50;57.00;;;;;;5089567;28;20225;-82
2022/06/07 12:35:05;;;;;;;3.60;3.30;;;25.00;54.00;;;;;;5081660;28;20190;-83
2022/06/07 12:37:34;;;;;;;3.60;3.35;;;25.40;54.30;;;;;;5074275;28;20191;-82
2022/06/07 12:40:00;;;;;;;2.85;2.60;;;25.40;51.20;;;;;;5057960;28;20183;-82
2022/06/07 12:42:29;;;;;;;5.65;3.08;;;25.60;52.20;;;;;;5076371;28;20208;-83
2022/06/07 12:45:00;;;;;;;3.53;2.80;;;25.90;50.40;;;;;;5076701;28;20297;-81
2022/06/07 12:47:34;;;;;;;3.00;2.80;;;26.20;50.00;;;;;;5073988;28;20265;-82
2022/06/07 12:50:00;;;;;;;4.35;2.65;;;26.30;48.10;;;;;;5083451;28;20258;-84
2022/06/07 12:52:31;;;;;;;2.17;1.98;;;25.90;47.70;;;;;;5061870;28;20211;-83
2022/06/07 12:55:07;;;;;;;2.85;2.28;;;26.20;47.20;;;;;;5060293;28;20434;-84
2022/06/07 12:57:46;;;;;;;2.45;2.17;;;26.40;47.70;;;;;;5078497;28;20266;-83
2022/06/07 13:00:21;;;;;;;4.22;2.38;;;26.60;49.30;;;;;;5073072;28;20194;-84
2022/06/07 13:03:02;;;;;;;2.70;2.45;;;27.20;44.90;;;;;;5073935;28;20278;-82
2022/06/07 13:05:31;;;;;;;2.55;2.35;;;27.40;47.00;;;;;;5081624;28;20202;-83
2022/06/07 13:08:00;;;;;;;2.55;2.35;;;27.60;46.30;;;;;;5084892;28;20191;-83
2022/06/07 13:10:30;;;;;;;2.65;2.45;;;26.90;46.10;;;;;;5081994;28;20180;-82
2022/06/07 13:13:02;;;;;;;3.92;2.38;;;26.90;46.90;;;;;;5077639;28;20195;-82
2022/06/07 13:15:56;;;;;;;2.72;2.50;;;26.90;46.80;;;;;;5079480;28;20710;-83
2022/06/07 13:18:32;;;;;;;2.30;2.15;;;26.30;49.30;;;;;;5079638;28;20262;-83
2022/06/07 13:21:35;;;;;;;2.38;2.17;;;26.00;48.50;;;;;;5075884;28;20194;-84
2022/06/07 13:24:01;;;;;;;2.40;2.20;;;25.40;50.80;;;;;;5082097;28;20674;-84
2022/06/07 13:26:30;;;;;;;2.17;2.03;;;24.90;51.70;;;;;;5078923;28;20219;-84
2022/06/07 13:29:02;;;;;;;2.40;2.20;;;24.50;53.90;;;;;;5082895;28;20191;-84
2022/06/07 13:31:33;;;;;;;3.20;2.38;;;24.60;54.20;;;;;;5083015;28;20225;-85